Time;durP1;ratioP1;P1;durP2;ratioP2;P2;SDS_P1;SDS_P2;PMS_P1;PMS_P2;Temp;Humidity;BMP_temperature;BMP_pressure;BME280_temperature;BME280_humidity;BME280_pressure;Samples;Min_cycle;Max_cycle;Signal;HPM_P1;HPM_P2
2024/02/04 00:01:40;;;;;;;12.07;7.95;;;;;;;0.19;80.38;95947.34;5114755;28;20055;-63
2024/02/04 00:04:06;;;;;;;12.85;8.23;;;;;;;0.07;81.20;95933.78;5113148;28;20046;-63
2024/02/04 00:06:32;;;;;;;13.32;7.85;;;;;;;0.20;82.27;95928.06;5114425;28;20442;-62
2024/02/04 00:08:58;;;;;;;14.57;7.07;;;;;;;0.23;81.50;95915.31;5113366;28;20050;-61
2024/02/04 00:11:23;;;;;;;12.93;7.57;;;;;;;0.10;81.64;95923.63;5113143;28;20108;-63
2024/02/04 00:13:49;;;;;;;14.32;7.53;;;;;;;0.17;81.37;95912.97;5096227;28;20691;-63
2024/02/04 00:16:15;;;;;;;9.07;6.38;;;;;;;0.23;82.17;95907.50;5112866;28;20039;-63
2024/02/04 00:18:41;;;;;;;13.75;6.90;;;;;;;0.25;81.63;95901.28;5114087;28;20130;-63
2024/02/04 00:21:06;;;;;;;12.10;6.90;;;;;;;0.34;82.00;95903.13;5114327;27;20431;-63
2024/02/04 00:23:32;;;;;;;12.35;7.03;;;;;;;0.31;80.99;95902.84;5114006;28;20408;-62
2024/02/04 00:25:58;;;;;;;9.60;6.55;;;;;;;0.40;81.79;95893.50;5095709;28;20043;-62
2024/02/04 00:28:23;;;;;;;10.15;6.00;;;;;;;0.32;81.53;95897.38;5113846;28;20059;-62
2024/02/04 00:30:49;;;;;;;10.60;7.05;;;;;;;0.31;82.05;95882.78;5095725;28;20107;-63
2024/02/04 00:33:16;;;;;;;11.20;6.00;;;;;;;0.41;81.80;95887.22;5112516;28;20126;-63
2024/02/04 00:35:42;;;;;;;10.98;6.57;;;;;;;0.43;81.51;95882.53;5112569;28;20543;-63
2024/02/04 00:38:08;;;;;;;11.05;6.28;;;;;;;0.45;81.69;95876.03;5095410;28;20592;-63
2024/02/04 00:40:34;;;;;;;8.50;5.75;;;;;;;0.46;81.47;95871.59;5113939;28;20122;-63
2024/02/04 00:43:00;;;;;;;11.35;6.18;;;;;;;0.44;81.47;95871.88;5078799;28;20118;-62
2024/02/04 00:45:26;;;;;;;12.38;6.78;;;;;;;0.53;81.70;95864.34;5112361;28;20521;-61
2024/02/04 00:47:52;;;;;;;10.45;6.35;;;;;;;0.47;81.03;95859.34;5095300;28;20046;-63
2024/02/04 00:50:18;;;;;;;10.43;6.32;;;;;;;0.50;82.04;95857.03;5095328;28;20043;-62
2024/02/04 00:52:44;;;;;;;10.80;6.18;;;;;;;0.53;81.16;95853.09;5112284;28;20055;-63
2024/02/04 00:55:10;;;;;;;12.90;6.80;;;;;;;0.57;80.76;95847.13;5095595;28;20040;-62
2024/02/04 00:57:36;;;;;;;12.50;6.65;;;;;;;0.64;80.28;95833.84;5061674;28;20039;-62
2024/02/04 01:00:02;;;;;;;11.75;6.10;;;;;;;0.74;80.59;95836.44;5112145;28;20088;-63
2024/02/04 01:02:30;;;;;;;8.63;5.57;;;;;;;0.63;80.41;95843.47;5113636;28;20063;-62
2024/02/04 01:04:56;;;;;;;10.48;5.88;;;;;;;0.75;80.77;95840.63;5112063;28;20089;-62
2024/02/04 01:07:22;;;;;;;11.13;6.18;;;;;;;0.74;80.53;95833.06;5095104;28;20409;-62
2024/02/04 01:09:47;;;;;;;9.43;5.85;;;;;;;0.61;80.17;95823.94;5095045;28;20244;-62
2024/02/04 01:12:13;;;;;;;11.10;6.20;;;;;;;0.56;80.94;95809.09;5111771;28;20036;-62
2024/02/04 01:14:39;;;;;;;10.30;6.78;;;;;;;0.72;81.25;95811.69;5113316;28;20047;-62
2024/02/04 01:17:04;;;;;;;12.95;6.80;;;;;;;0.82;80.99;95798.63;5111824;28;20409;-63
2024/02/04 01:19:30;;;;;;;9.55;5.60;;;;;;;0.88;81.06;95808.00;5091167;28;20509;-63
2024/02/04 01:21:58;;;;;;;10.07;6.10;;;;;;;0.86;80.19;95802.28;5091330;28;20524;-63
2024/02/04 01:24:25;;;;;;;12.25;6.15;;;;;;;0.89;80.69;95805.16;5074086;28;20509;-62
2024/02/04 01:26:50;;;;;;;11.57;6.50;;;;;;;0.93;80.60;95796.78;5091223;28;20043;-62
2024/02/04 01:29:16;;;;;;;10.93;6.00;;;;;;;1.00;80.02;95798.09;5092161;28;20056;-63
2024/02/04 01:31:42;;;;;;;11.57;6.07;;;;;;;1.06;80.62;95791.81;5091168;28;20047;-63
2024/02/04 01:34:08;;;;;;;8.50;5.20;;;;;;;1.00;80.54;95785.06;5091196;28;20233;-62
2024/02/04 01:36:33;;;;;;;10.30;6.40;;;;;;;1.04;80.70;95782.69;5091167;28;20032;-63
2024/02/04 01:38:59;;;;;;;9.30;5.72;;;;;;;1.05;80.32;95773.81;5090925;28;20047;-61
2024/02/04 01:41:27;;;;;;;9.23;5.80;;;;;;;1.05;80.44;95779.03;5092450;28;20040;-62
2024/02/04 01:43:54;;;;;;;9.02;5.47;;;;;;;1.02;80.67;95777.72;5092205;28;20036;-62
2024/02/04 01:46:21;;;;;;;9.18;5.90;;;;;;;1.04;80.35;95777.47;5092339;28;20157;-62
2024/02/04 01:48:46;;;;;;;11.02;5.53;;;;;;;0.98;81.30;95776.72;5090780;28;20050;-62
2024/02/04 01:51:14;;;;;;;7.93;5.03;;;;;;;1.04;81.43;95765.22;5090790;28;20448;-62
2024/02/04 01:53:41;;;;;;;7.35;4.88;;;;;;;1.09;81.17;95769.66;5073909;28;20547;-62
2024/02/04 01:56:07;;;;;;;9.38;5.38;;;;;;;1.14;80.82;95764.41;5090741;28;20089;-62
2024/02/04 01:58:34;;;;;;;8.40;5.03;;;;;;;1.09;80.97;95760.00;5074057;28;20059;-62
2024/02/04 02:01:00;;;;;;;9.20;5.15;;;;;;;1.06;81.49;95757.13;5091861;28;20581;-63
2024/02/04 02:03:26;;;;;;;9.27;5.22;;;;;;;1.09;81.19;95752.16;5073722;28;20044;-63
2024/02/04 02:05:52;;;;;;;5.38;4.18;;;;;;;1.10;81.01;95751.13;5090593;28;20082;-62
2024/02/04 02:08:18;;;;;;;7.22;4.38;;;;;;;1.14;81.53;95749.53;5091654;28;20064;-62
2024/02/04 02:10:47;;;;;;;7.70;4.68;;;;;;;1.16;81.26;95746.66;5090488;28;20047;-61
2024/02/04 02:13:20;;;;;;;8.35;4.20;;;;;;;1.17;80.86;95737.00;5091637;28;20398;-63
2024/02/04 02:15:50;;;;;;;7.82;4.10;;;;;;;1.20;81.01;95739.84;5057204;28;20044;-63
2024/02/04 02:18:19;;;;;;;6.93;4.35;;;;;;;1.23;80.89;95730.72;5061969;28;20082;-63
2024/02/04 02:20:56;;;;;;;;;;;;;;;1.24;81.69;95735.69;5062046;28;20509;-63
2024/02/04 02:23:23;;;;;;;5.07;3.67;;;;;;;1.23;81.03;95741.16;5091482;28;19974;-62
2024/02/04 02:25:49;;;;;;;6.07;3.83;;;;;;;1.20;81.35;95726.81;5090549;28;20047;-61
2024/02/04 02:28:15;;;;;;;6.25;3.47;;;;;;;1.23;81.56;95725.50;5090247;28;20087;-62
2024/02/04 02:30:41;;;;;;;5.47;3.50;;;;;;;1.30;81.73;95723.41;5091758;28;20717;-62
2024/02/04 02:33:07;;;;;;;5.95;3.33;;;;;;;1.30;81.59;95736.44;5073407;28;20048;-63
2024/02/04 02:35:34;;;;;;;5.35;3.15;;;;;;;1.38;82.46;95728.03;5090244;28;20036;-63
2024/02/04 02:38:30;;;;;;;4.35;3.00;;;;;;;1.44;81.74;95721.78;5090223;28;20048;-65
2024/02/04 02:41:01;;;;;;;4.30;3.20;;;;;;;1.44;81.35;95713.94;5088288;28;20067;-62
2024/02/04 02:43:27;;;;;;;4.28;2.97;;;;;;;1.36;81.61;95709.28;5088984;28;20055;-63
2024/02/04 02:45:53;;;;;;;4.72;3.33;;;;;;;1.30;82.07;95705.13;5090328;28;20040;-62
2024/02/04 02:48:19;;;;;;;3.88;2.70;;;;;;;1.34;82.59;95700.94;5073533;28;20044;-63
2024/02/04 02:50:45;;;;;;;3.72;2.70;;;;;;;1.42;82.32;95697.00;5073215;28;20410;-63
2024/02/04 02:53:11;;;;;;;4.47;2.95;;;;;;;1.47;82.39;95699.56;5091213;28;20040;-63
2024/02/04 02:55:36;;;;;;;4.30;2.88;;;;;;;1.45;82.26;95691.25;5091259;28;20089;-62
2024/02/04 02:58:02;;;;;;;3.72;2.88;;;;;;;1.46;82.07;95682.34;5091607;28;20090;-63
2024/02/04 03:00:28;;;;;;;4.78;3.00;;;;;;;1.47;82.07;95689.91;5089981;28;20429;-62
2024/02/04 03:02:54;;;;;;;3.70;2.70;;;;;;;1.48;82.12;95677.66;5089818;28;20048;-62
2024/02/04 03:05:20;;;;;;;3.28;2.42;;;;;;;1.54;82.25;95679.19;5073023;28;20048;-63
2024/02/04 03:07:45;;;;;;;7.00;2.67;;;;;;;1.57;82.40;95682.03;5090173;28;20071;-63
2024/02/04 03:10:11;;;;;;;3.97;2.60;;;;;;;1.60;82.18;95680.72;5091088;28;20043;-63
2024/02/04 03:12:37;;;;;;;3.88;2.42;;;;;;;1.56;82.88;95683.09;5089888;28;20040;-63
2024/02/04 03:15:03;;;;;;;2.75;2.45;;;;;;;1.65;82.85;95674.66;5072959;28;20044;-64
2024/02/04 03:17:30;;;;;;;5.18;2.88;;;;;;;1.57;83.42;95668.97;5095941;28;20344;-62
2024/02/04 03:19:56;;;;;;;3.75;2.97;;;;;;;1.49;83.28;95671.38;5095962;28;20047;-64
2024/02/04 03:22:23;;;;;;;3.95;2.50;;;;;;;1.52;83.37;95676.03;5097009;28;20173;-63
2024/02/04 03:24:49;;;;;;;8.80;2.50;;;;;;;1.52;83.66;95674.22;5113976;28;20043;-63
2024/02/04 03:27:18;;;;;;;3.85;2.80;;;;;;;1.59;84.13;95677.31;5113838;28;20047;-63
2024/02/04 03:29:44;;;;;;;4.57;2.70;;;;;;;1.56;83.57;95672.63;5113850;28;20050;-63
2024/02/04 03:32:11;;;;;;;3.50;2.58;;;;;;;1.53;83.92;95667.16;5114870;28;20039;-63
2024/02/04 03:34:37;;;;;;;4.30;2.42;;;;;;;1.51;84.11;95666.66;5112924;28;20046;-63
2024/02/04 03:37:03;;;;;;;3.80;2.55;;;;;;;1.57;84.38;95666.34;5113534;28;20042;-64
2024/02/04 03:39:29;;;;;;;3.47;2.50;;;;;;;1.64;84.10;95658.22;5113325;28;20055;-64
2024/02/04 03:41:55;;;;;;;3.42;2.60;;;;;;;1.67;84.29;95644.63;5113773;28;20386;-63
2024/02/04 03:44:21;;;;;;;3.50;2.33;;;;;;;1.64;83.63;95639.94;5096593;28;20068;-64
2024/02/04 03:46:50;;;;;;;3.30;2.38;;;;;;;1.63;84.58;95632.41;5113391;28;20055;-62
2024/02/04 03:49:17;;;;;;;3.90;2.40;;;;;;;1.70;84.87;95645.91;5096390;28;20043;-62
2024/02/04 03:51:43;;;;;;;3.00;2.30;;;;;;;1.78;84.87;95642.72;5113304;28;20036;-64
2024/02/04 03:54:09;;;;;;;3.47;2.40;;;;;;;1.78;84.32;95643.50;5096310;28;20527;-62
2024/02/04 03:56:34;;;;;;;3.65;2.38;;;;;;;1.84;83.84;95638.25;5113343;28;20044;-63
2024/02/04 03:59:00;;;;;;;2.75;2.10;;;;;;;1.75;83.61;95644.03;5113223;28;20100;-63
2024/02/04 04:01:26;;;;;;;2.60;2.08;;;;;;;1.74;83.83;95644.34;5113163;28;20042;-63
2024/02/04 04:03:52;;;;;;;2.88;2.00;;;;;;;1.68;84.82;95643.59;5113508;28;20048;-62
2024/02/04 04:06:17;;;;;;;3.08;2.13;;;;;;;1.72;84.58;95646.44;5114563;28;20324;-63
2024/02/04 04:08:43;;;;;;;2.88;2.13;;;;;;;1.75;84.59;95646.66;5096003;28;20042;-62
2024/02/04 04:11:10;;;;;;;3.08;2.30;;;;;;;1.74;84.74;95647.72;5096218;28;20047;-62
2024/02/04 04:13:36;;;;;;;4.63;1.90;;;;;;;1.81;84.99;95634.34;5112828;28;20062;-62
2024/02/04 04:16:02;;;;;;;2.67;2.20;;;;;;;1.90;85.18;95635.31;5114396;28;20035;-62
2024/02/04 04:18:28;;;;;;;3.42;2.10;;;;;;;1.87;84.26;95633.25;5112508;28;20108;-63
2024/02/04 04:20:54;;;;;;;2.95;2.10;;;;;;;1.92;85.07;95641.06;5112438;28;20035;-62
2024/02/04 04:23:19;;;;;;;2.28;1.95;;;;;;;1.95;84.86;95634.50;5113621;28;20067;-63
2024/02/04 04:25:45;;;;;;;2.80;1.70;;;;;;;2.01;85.05;95631.56;5113766;28;20044;-62
2024/02/04 04:28:11;;;;;;;3.40;1.70;;;;;;;2.06;85.17;95630.75;5111928;28;20108;-64
2024/02/04 04:30:36;;;;;;;3.60;1.70;;;;;;;2.07;84.79;95634.16;5114058;28;20036;-63
2024/02/04 04:33:02;;;;;;;2.35;1.63;;;;;;;2.07;84.47;95623.69;5112689;28;20047;-63
2024/02/04 04:35:28;;;;;;;4.05;1.80;;;;;;;2.00;84.58;95622.19;5112527;28;20127;-61
2024/02/04 04:37:53;;;;;;;2.38;1.90;;;;;;;2.01;84.82;95631.56;5114140;28;20043;-63
2024/02/04 04:40:19;;;;;;;1.85;1.50;;;;;;;1.95;85.22;95621.44;5114009;28;20050;-63
2024/02/04 04:42:45;;;;;;;2.05;1.75;;;;;;;1.96;85.45;95621.16;5113578;28;20043;-62
2024/02/04 04:45:11;;;;;;;1.50;1.40;;;;;;;2.02;85.70;95627.13;5094667;28;20052;-63
2024/02/04 04:47:37;;;;;;;1.70;1.60;;;;;;;1.96;85.10;95623.00;5095056;28;20043;-62
2024/02/04 04:50:04;;;;;;;2.10;1.50;;;;;;;2.00;85.45;95610.94;5095440;28;20497;-62
2024/02/04 04:52:30;;;;;;;2.38;2.00;;;;;;;2.11;85.65;95627.31;5113663;28;20184;-63
2024/02/04 04:54:56;;;;;;;2.85;1.85;;;;;;;2.13;85.00;95625.22;5113741;28;20122;-63
2024/02/04 04:57:22;;;;;;;2.75;1.70;;;;;;;2.14;85.18;95613.69;5112063;28;20512;-62
2024/02/04 04:59:48;;;;;;;2.97;1.67;;;;;;;2.19;85.55;95617.03;5113593;28;20059;-63
2024/02/04 05:02:14;;;;;;;2.42;1.70;;;;;;;2.15;84.49;95612.66;5111793;28;20050;-64
2024/02/04 05:04:42;;;;;;;1.90;1.58;;;;;;;2.18;85.32;95612.09;5111594;28;20047;-63
2024/02/04 05:07:08;;;;;;;2.30;1.63;;;;;;;2.23;85.85;95612.03;5113270;28;20519;-62
2024/02/04 05:09:34;;;;;;;2.08;1.52;;;;;;;2.23;85.78;95612.03;5111720;28;20160;-64
2024/02/04 05:12:00;;;;;;;2.72;1.50;;;;;;;2.31;85.31;95608.84;5113347;28;20040;-63
2024/02/04 05:14:25;;;;;;;1.85;1.60;;;;;;;2.29;85.21;95603.09;5112011;28;20047;-62
2024/02/04 05:16:51;;;;;;;7.50;4.20;;;;;;;2.30;85.31;95611.75;5111689;28;20054;-62
2024/02/04 05:19:17;;;;;;;7.13;1.73;;;;;;;2.34;84.59;95607.50;5111805;28;20044;-64
2024/02/04 05:21:43;;;;;;;4.43;1.90;;;;;;;2.30;85.19;95606.50;5113074;28;20501;-64
2024/02/04 05:24:08;;;;;;;2.35;1.60;;;;;;;2.28;85.22;95610.16;5110547;28;20081;-63
2024/02/04 05:26:34;;;;;;;3.28;1.73;;;;;;;2.30;85.01;95609.13;5094754;28;20040;-63
2024/02/04 05:29:00;;;;;;;1.83;1.50;;;;;;;2.38;85.08;95613.72;5112766;28;20063;-65
2024/02/04 05:31:25;;;;;;;2.30;1.70;;;;;;;2.35;84.40;95609.81;5110820;28;20036;-63
2024/02/04 05:33:52;;;;;;;2.35;1.55;;;;;;;2.38;84.81;95609.31;5110634;28;20421;-62
2024/02/04 05:36:18;;;;;;;1.60;1.40;;;;;;;2.43;84.49;95614.44;5110871;28;20074;-64
2024/02/04 05:38:45;;;;;;;2.83;1.40;;;;;;;2.46;84.43;95605.28;5109617;28;20505;-63
2024/02/04 05:41:11;;;;;;;1.30;1.20;;;;;;;2.53;84.49;95615.41;5094407;28;20062;-62
2024/02/04 05:43:36;;;;;;;1.58;1.30;;;;;;;2.56;84.28;95612.22;5111164;28;20070;-62
2024/02/04 05:46:02;;;;;;;1.30;1.20;;;;;;;2.59;83.79;95612.47;5112188;28;20039;-63
2024/02/04 05:48:28;;;;;;;1.88;1.30;;;;;;;2.54;82.96;95619.59;5111224;28;20135;-64
2024/02/04 05:50:53;;;;;;;1.60;1.35;;;;;;;2.46;83.22;95620.97;5077174;28;20039;-63
2024/02/04 05:53:19;;;;;;;1.02;1.02;;;;;;;2.44;84.08;95616.03;5112180;28;20052;-62
2024/02/04 05:55:46;;;;;;;1.08;1.00;;;;;;;2.36;83.61;95619.25;5112245;28;20053;-64
2024/02/04 05:58:13;;;;;;;1.20;1.05;;;;;;;2.39;83.90;95616.06;5112326;28;20408;-64
2024/02/04 06:00:40;;;;;;;0.98;0.90;;;;;;;2.36;83.75;95627.09;5110987;28;20039;-63
2024/02/04 06:03:06;;;;;;;1.40;1.30;;;;;;;2.38;83.40;95629.41;5112181;28;20046;-64
2024/02/04 06:05:32;;;;;;;1.05;1.00;;;;;;;2.35;83.07;95625.50;5112453;28;20044;-65
2024/02/04 06:07:57;;;;;;;1.33;1.17;;;;;;;2.26;83.18;95630.59;5111647;28;20046;-63
2024/02/04 06:10:23;;;;;;;1.58;1.48;;;;;;;2.30;84.01;95630.03;5112127;28;20465;-63
2024/02/04 06:12:49;;;;;;;1.92;1.40;;;;;;;2.33;84.00;95635.47;5112382;28;20040;-65
2024/02/04 06:15:16;;;;;;;1.33;1.02;;;;;;;2.33;83.65;95653.00;5111950;28;20054;-64
2024/02/04 06:17:42;;;;;;;1.45;1.33;;;;;;;2.14;83.74;95642.44;5110443;28;20167;-64
2024/02/04 06:20:08;;;;;;;1.50;1.40;;;;;;;2.20;84.07;95652.56;5093411;28;20096;-63
2024/02/04 06:22:35;;;;;;;3.08;2.10;;;;;;;2.12;83.64;95653.19;5111430;28;20495;-63
2024/02/04 06:25:01;;;;;;;2.53;1.63;;;;;;;2.13;83.99;95657.34;5112054;28;20089;-65
2024/02/04 06:27:27;;;;;;;1.55;1.17;;;;;;;1.94;83.80;95638.16;5111736;28;20055;-63
2024/02/04 06:29:53;;;;;;;3.95;2.50;;;;;;;2.09;83.88;95658.16;5111823;28;20054;-64
2024/02/04 06:32:21;;;;;;;2.22;1.38;;;;;;;1.88;84.13;95666.13;5112025;28;20079;-63
2024/02/04 06:34:47;;;;;;;1.98;1.70;;;;;;;1.84;85.54;95677.41;5111711;28;20497;-64
2024/02/04 06:37:13;;;;;;;2.42;2.10;;;;;;;1.89;85.57;95680.78;5110402;28;20061;-64
2024/02/04 06:39:38;;;;;;;3.45;1.70;;;;;;;2.02;86.19;95687.19;5109725;28;20550;-65
2024/02/04 06:42:04;;;;;;;1.85;1.67;;;;;;;1.91;85.10;95677.88;5110581;28;20527;-64
2024/02/04 06:44:30;;;;;;;2.58;1.70;;;;;;;1.92;85.75;95688.06;5111535;28;20047;-65
2024/02/04 06:46:56;;;;;;;2.22;1.70;;;;;;;1.94;85.80;95685.97;5093369;28;20035;-64
2024/02/04 06:49:22;;;;;;;1.90;1.40;;;;;;;1.95;85.70;95692.75;5111756;28;20188;-65
2024/02/04 06:51:47;;;;;;;1.77;1.33;;;;;;;1.98;85.88;95697.44;5115219;28;20035;-65
2024/02/04 06:54:14;;;;;;;2.08;1.50;;;;;;;1.74;86.41;95678.28;5115975;28;20529;-64
2024/02/04 06:56:40;;;;;;;0.90;0.90;;;;;;;1.88;86.22;95699.31;5116037;28;20051;-64
2024/02/04 06:59:06;;;;;;;2.42;1.35;;;;;;;1.90;86.84;95705.84;5115245;28;20097;-64
2024/02/04 07:01:32;;;;;;;1.38;1.20;;;;;;;1.98;87.08;95713.09;5115313;28;20487;-65
2024/02/04 07:03:58;;;;;;;1.30;1.20;;;;;;;2.00;87.57;95718.84;5115813;28;20044;-64
2024/02/04 07:06:24;;;;;;;1.88;1.70;;;;;;;1.92;87.54;95724.63;5097325;28;20387;-64
2024/02/04 07:08:50;;;;;;;3.33;1.70;;;;;;;1.97;87.84;95718.56;5114431;28;20501;-66
2024/02/04 07:11:16;;;;;;;2.13;1.85;;;;;;;1.91;87.76;95723.09;5115638;28;20040;-64
2024/02/04 07:13:42;;;;;;;4.95;2.70;;;;;;;1.84;87.10;95722.59;5114206;28;20051;-64
2024/02/04 07:16:08;;;;;;;6.63;3.97;;;;;;;1.86;87.53;95736.16;5115309;28;20126;-64
2024/02/04 07:18:33;;;;;;;4.88;2.85;;;;;;;1.74;86.89;95722.66;5113630;28;20135;-64
2024/02/04 07:20:59;;;;;;;9.38;4.82;;;;;;;1.77;88.12;95735.94;5115182;28;20044;-64
2024/02/04 07:23:25;;;;;;;8.88;4.57;;;;;;;1.91;88.21;95738.75;5113664;28;20142;-63
2024/02/04 07:25:50;;;;;;;7.28;3.67;;;;;;;1.90;87.06;95741.63;5115217;28;20042;-63
2024/02/04 07:28:16;;;;;;;2.85;2.08;;;;;;;1.94;87.35;95745.25;5114946;28;20600;-63
2024/02/04 07:30:42;;;;;;;2.53;2.03;;;;;;;2.03;87.64;95752.25;5115329;28;20039;-63
2024/02/04 07:33:08;;;;;;;2.58;2.20;;;;;;;2.02;87.75;95755.91;5114895;28;20044;-64
2024/02/04 07:35:34;;;;;;;6.22;3.10;;;;;;;2.03;87.17;95756.69;5115340;28;20103;-63
2024/02/04 07:37:59;;;;;;;6.50;3.50;;;;;;;2.12;86.33;95768.13;5115297;28;20505;-63
2024/02/04 07:40:26;;;;;;;9.57;4.97;;;;;;;2.05;86.44;95759.81;5114917;28;20073;-63
2024/02/04 07:42:52;;;;;;;7.47;3.58;;;;;;;2.02;86.65;95773.41;5115369;28;20050;-62
2024/02/04 07:45:18;;;;;;;11.48;5.47;;;;;;;2.15;87.46;95772.81;5113648;28;20134;-63
2024/02/04 07:47:44;;;;;;;11.52;4.28;;;;;;;2.12;87.39;95775.97;5096238;28;20039;-64
2024/02/04 07:50:09;;;;;;;9.70;3.45;;;;;;;2.19;87.41;95788.72;5114804;28;20067;-63
2024/02/04 07:52:36;;;;;;;4.53;2.38;;;;;;;2.13;87.20;95781.97;5126810;27;20130;-65
2024/02/04 07:55:02;;;;;;;2.60;2.13;;;;;;;2.10;85.35;95790.34;5135164;27;20047;-65
2024/02/04 07:57:29;;;;;;;6.68;2.58;;;;;;;2.01;85.38;95801.38;5134561;27;20454;-67
2024/02/04 07:59:55;;;;;;;6.15;3.33;;;;;;;2.04;86.00;95803.44;5117630;27;20039;-66
2024/02/04 08:02:21;;;;;;;10.77;4.45;;;;;;;1.97;85.55;95802.16;5134288;27;20495;-65
2024/02/04 08:04:46;;;;;;;6.88;3.40;;;;;;;2.03;85.85;95807.09;5133759;27;20035;-66
2024/02/04 08:07:12;;;;;;;3.58;2.55;;;;;;;2.18;85.49;95802.84;5117058;27;20042;-65
2024/02/04 08:09:38;;;;;;;6.70;2.50;;;;;;;2.25;83.88;95822.38;5080412;28;20072;-64
2024/02/04 08:12:04;;;;;;;3.17;2.25;;;;;;;2.27;83.53;95822.13;5093044;28;20040;-66
2024/02/04 08:14:29;;;;;;;3.70;1.75;;;;;;;1.97;82.75;95778.66;5093894;28;20043;-67
2024/02/04 08:16:55;;;;;;;1.42;1.33;;;;;;;2.23;83.37;95827.09;5075534;28;20043;-64
2024/02/04 08:19:21;;;;;;;1.80;1.42;;;;;;;2.25;83.57;95825.00;5111052;28;20108;-63
2024/02/04 08:21:47;;;;;;;2.63;1.70;;;;;;;2.25;83.06;95827.59;5112654;28;20040;-65
2024/02/04 08:24:13;;;;;;;2.42;1.40;;;;;;;2.22;83.66;95830.75;5113405;28;20040;-65
2024/02/04 08:26:38;;;;;;;2.53;1.55;;;;;;;2.24;83.82;95846.19;5100129;28;20451;-65
2024/02/04 08:29:04;;;;;;;1.75;1.35;;;;;;;2.15;84.14;95851.19;5093372;28;20060;-66
2024/02/04 08:31:33;;;;;;;1.67;1.25;;;;;;;2.30;84.01;95857.38;5091886;28;20114;-65
2024/02/04 08:33:58;;;;;;;1.48;1.38;;;;;;;2.31;83.11;95856.31;5093206;28;20534;-65
2024/02/04 08:36:24;;;;;;;1.50;1.40;;;;;;;2.37;83.91;95858.63;5091962;28;20130;-63
2024/02/04 08:38:50;;;;;;;1.80;1.50;;;;;;;2.46;83.38;95861.47;5092520;28;20108;-66
2024/02/04 08:41:16;;;;;;;3.83;2.10;;;;;;;2.37;82.44;95860.47;5058241;28;20036;-66
2024/02/04 08:43:41;;;;;;;4.50;2.17;;;;;;;2.29;82.92;95869.66;5091718;28;20126;-67
2024/02/04 08:46:07;;;;;;;3.60;2.22;;;;;;;2.19;82.72;95872.34;5093182;28;20060;-66
2024/02/04 08:48:33;;;;;;;5.57;2.00;;;;;;;2.35;83.13;95878.25;5091496;28;20421;-68
2024/02/04 08:50:59;;;;;;;3.78;2.00;;;;;;;2.32;81.16;95884.00;5092944;28;20533;-66
2024/02/04 08:53:25;;;;;;;4.00;2.00;;;;;;;2.27;81.19;95890.84;5092117;28;20398;-67
2024/02/04 08:55:51;;;;;;;5.90;2.63;;;;;;;2.28;80.56;95886.41;5091314;28;20055;-67
2024/02/04 08:58:17;;;;;;;6.90;3.17;;;;;;;2.31;80.04;95893.69;5091356;28;20044;-70
2024/02/04 09:00:43;;;;;;;4.93;2.80;;;;;;;2.34;78.34;95889.75;5073855;28;20135;-69
2024/02/04 09:03:09;;;;;;;6.22;3.20;;;;;;;2.32;78.07;95903.09;5073573;28;20040;-68
2024/02/04 09:05:35;;;;;;;4.90;3.05;;;;;;;2.25;77.73;95895.56;5092469;28;20044;-63
2024/02/04 09:08:02;;;;;;;4.35;2.10;;;;;;;2.27;77.67;95897.91;5090670;28;20623;-62
2024/02/04 09:10:28;;;;;;;3.97;2.30;;;;;;;2.37;77.82;95903.06;5088246;28;20662;-62
2024/02/04 09:12:54;;;;;;;4.13;2.22;;;;;;;2.48;76.91;95909.03;5089504;28;20138;-63
2024/02/04 09:15:19;;;;;;;6.15;2.42;;;;;;;2.52;77.72;95904.03;5090656;28;20192;-62
2024/02/04 09:17:45;;;;;;;8.63;2.47;;;;;;;2.49;76.78;95910.59;5095943;28;20153;-63
2024/02/04 09:20:11;;;;;;;4.22;2.05;;;;;;;2.44;76.11;95906.19;5111413;28;20058;-63
2024/02/04 09:22:37;;;;;;;5.95;2.40;;;;;;;2.28;76.70;95904.69;5111674;28;20520;-63
2024/02/04 09:25:03;;;;;;;7.93;2.13;;;;;;;2.32;75.35;95918.00;5111940;28;20077;-62
2024/02/04 09:27:29;;;;;;;1.75;1.52;;;;;;;2.28;75.77;95915.13;5111414;28;20067;-63
2024/02/04 09:29:55;;;;;;;5.40;2.25;;;;;;;2.47;76.54;95923.94;5111605;28;20039;-63
2024/02/04 09:32:21;;;;;;;8.23;4.43;;;;;;;2.43;75.17;95912.44;5094586;28;20412;-63
2024/02/04 09:34:46;;;;;;;4.53;2.30;;;;;;;2.41;75.58;95916.38;5111391;28;20085;-62
2024/02/04 09:37:12;;;;;;;8.07;2.70;;;;;;;2.46;75.37;95913.75;5112629;27;20047;-62
2024/02/04 09:39:38;;;;;;;5.13;2.30;;;;;;;2.42;74.00;95915.34;5112342;28;20055;-64
2024/02/04 09:42:04;;;;;;;6.68;2.42;;;;;;;2.63;73.59;95916.00;5112877;28;20043;-62
2024/02/04 09:44:32;;;;;;;4.05;2.00;;;;;;;2.72;73.13;95920.38;5111216;28;20070;-63
2024/02/04 09:46:59;;;;;;;4.38;2.40;;;;;;;2.77;73.12;95921.41;5111256;28;20039;-63
2024/02/04 09:49:27;;;;;;;12.05;2.60;;;;;;;2.67;75.69;95930.88;5112336;28;20100;-64
2024/02/04 09:51:56;;;;;;;4.70;2.33;;;;;;;2.61;76.42;95925.94;5112494;28;20087;-63
2024/02/04 09:54:22;;;;;;;6.00;2.00;;;;;;;2.58;75.52;95929.09;5112523;28;20036;-64
2024/02/04 09:56:50;;;;;;;7.57;2.63;;;;;;;2.45;73.84;95925.25;5111227;28;20036;-64
2024/02/04 09:59:16;;;;;;;6.55;2.38;;;;;;;2.59;74.38;95928.03;5110975;28;20047;-64
2024/02/04 10:01:44;;;;;;;5.28;2.22;;;;;;;2.79;73.18;95935.75;5112075;28;20409;-63
2024/02/04 10:04:10;;;;;;;9.70;2.55;;;;;;;2.67;72.38;95933.47;5094025;28;20134;-64
2024/02/04 10:06:35;;;;;;;9.68;2.75;;;;;;;2.68;72.07;95931.66;5112048;28;20131;-64
2024/02/04 10:09:01;;;;;;;7.13;2.65;;;;;;;2.66;71.44;95946.84;5093633;28;20039;-64
2024/02/04 10:11:27;;;;;;;6.35;2.28;;;;;;;2.69;71.51;95949.69;5093929;28;20420;-64
2024/02/04 10:13:52;;;;;;;4.40;2.00;;;;;;;2.60;70.23;95935.63;5112174;28;20580;-64
2024/02/04 10:16:18;;;;;;;6.75;2.33;;;;;;;2.73;70.71;95963.00;5110852;28;20043;-64
2024/02/04 10:18:45;;;;;;;8.50;3.25;;;;;;;2.66;70.69;95944.22;5112163;28;20133;-63
2024/02/04 10:21:20;;;;;;;6.20;2.40;;;;;;;2.55;70.51;95943.50;5110765;28;20044;-63
2024/02/04 10:23:47;;;;;;;10.32;2.50;;;;;;;2.69;71.03;95948.91;5111830;28;20039;-64
2024/02/04 10:26:13;;;;;;;9.85;3.05;;;;;;;2.71;70.44;95955.44;5110566;28;20066;-64
2024/02/04 10:28:40;;;;;;;7.75;2.72;;;;;;;2.69;70.02;95948.91;5110592;28;20548;-65
2024/02/04 10:31:09;;;;;;;9.85;2.90;;;;;;;2.85;70.29;95955.59;5112250;28;20040;-63
2024/02/04 10:33:36;;;;;;;5.05;2.20;;;;;;;2.82;70.26;95956.13;5112086;28;20123;-64
2024/02/04 10:36:02;;;;;;;8.30;2.55;;;;;;;3.09;69.91;95958.34;5111046;28;20386;-62
2024/02/04 10:38:28;;;;;;;9.85;3.50;;;;;;;3.07;68.12;95965.66;5110658;28;20536;-63
2024/02/04 10:40:54;;;;;;;7.90;2.80;;;;;;;2.79;68.20;95966.38;5112994;28;20122;-64
2024/02/04 10:43:24;;;;;;;11.27;2.92;;;;;;;2.80;68.32;95965.34;5112274;28;20043;-63
2024/02/04 10:45:53;;;;;;;8.32;2.40;;;;;;;2.67;68.73;95967.47;5112713;28;20440;-63
2024/02/04 10:48:20;;;;;;;5.80;2.50;;;;;;;2.74;68.63;95972.44;5094710;28;20427;-64
2024/02/04 10:50:47;;;;;;;5.47;2.30;;;;;;;2.76;69.58;95970.31;5094946;28;20040;-64
2024/02/04 10:53:14;;;;;;;6.78;2.72;;;;;;;2.88;68.76;95978.63;5112584;28;20051;-62
2024/02/04 10:55:46;;;;;;;7.45;2.50;;;;;;;2.92;69.01;95984.09;5112884;28;20493;-64
2024/02/04 10:58:13;;;;;;;7.00;2.50;;;;;;;3.08;68.80;95980.31;5111513;28;20103;-63
2024/02/04 11:00:40;;;;;;;11.77;2.88;;;;;;;3.03;68.38;95979.56;5112193;28;20095;-63
2024/02/04 11:03:06;;;;;;;9.07;5.03;;;;;;;2.95;69.12;95976.47;5112494;28;20508;-63
2024/02/04 11:05:35;;;;;;;6.55;2.90;;;;;;;3.01;68.71;95986.91;5111715;28;20040;-62
2024/02/04 11:08:03;;;;;;;6.63;2.30;;;;;;;2.98;68.75;95984.84;5111976;28;20051;-64
2024/02/04 11:10:30;;;;;;;6.40;2.38;;;;;;;3.18;69.56;95979.47;5111478;28;20408;-63
2024/02/04 11:12:57;;;;;;;5.50;2.00;;;;;;;3.32;69.41;95977.75;5093387;28;20048;-64
2024/02/04 11:15:25;;;;;;;7.18;1.77;;;;;;;3.26;67.61;95976.25;5110548;28;20044;-62
2024/02/04 11:18:13;;;;;;;3.47;1.65;;;;;;;3.34;68.19;95980.91;5110119;28;20557;-63
2024/02/04 11:21:20;;;;;;;3.92;1.75;;;;;;;3.33;67.40;95970.72;5110141;28;20050;-64
2024/02/04 11:24:15;;;;;;;5.35;1.90;;;;;;;3.47;66.30;95982.13;5110164;28;20039;-62
2024/02/04 11:26:42;;;;;;;3.92;1.58;;;;;;;3.33;66.25;95970.72;5110295;28;20045;-63
2024/02/04 11:29:09;;;;;;;6.00;2.10;;;;;;;3.50;67.21;95978.16;5110097;28;20083;-63
2024/02/04 11:31:39;;;;;;;4.80;1.83;;;;;;;3.70;66.91;95985.06;5059496;28;20036;-63
2024/02/04 11:34:05;;;;;;;3.60;1.65;;;;;;;4.01;64.94;95977.69;5109992;28;20151;-63
2024/02/04 11:36:38;;;;;;;3.35;1.73;;;;;;;4.33;65.36;95987.56;5111319;28;20078;-62
2024/02/04 11:39:21;;;;;;;3.35;1.42;;;;;;;4.42;63.69;95985.88;5113782;28;20047;-63